sensor_id;sensor_type;location;lat;lon;timestamp;pressure;altitude;pressure_sealevel;temperature;humidity
14882;BME280;7533;51.278;12.588;2023-09-08T00:00:09;100640.03;;;28.06;56.84
14882;BME280;7533;51.278;12.588;2023-09-08T00:05:13;100637.91;;;28.09;56.53
14882;BME280;7533;51.278;12.588;2023-09-08T00:10:18;100637.63;;;28.03;56.64
14882;BME280;7533;51.278;12.588;2023-09-08T00:15:22;100635.16;;;27.90;56.85
14882;BME280;7533;51.278;12.588;2023-09-08T00:20:25;100627.28;;;27.97;56.59
14882;BME280;7533;51.278;12.588;2023-09-08T00:25:28;100638.19;;;27.97;56.42
14882;BME280;7533;51.278;12.588;2023-09-08T00:30:33;100629.53;;;27.82;57.41
14882;BME280;7533;51.278;12.588;2023-09-08T00:35:38;100621.25;;;27.83;56.64
14882;BME280;7533;51.278;12.588;2023-09-08T00:40:41;100621.69;;;27.79;57.42
14882;BME280;7533;51.278;12.588;2023-09-08T00:45:46;100620.94;;;27.77;56.74
14882;BME280;7533;51.278;12.588;2023-09-08T00:50:49;100625.34;;;27.68;56.93
14882;BME280;7533;51.278;12.588;2023-09-08T00:55:53;100627.25;;;27.77;57.01
14882;BME280;7533;51.278;12.588;2023-09-08T01:00:58;100624.47;;;27.67;57.38
14882;BME280;7533;51.278;12.588;2023-09-08T01:06:02;100625.59;;;27.65;57.61
14882;BME280;7533;51.278;12.588;2023-09-08T01:11:06;100620.28;;;27.54;56.82
14882;BME280;7533;51.278;12.588;2023-09-08T01:16:11;100635.31;;;27.58;56.38
14882;BME280;7533;51.278;12.588;2023-09-08T01:21:31;100624.59;;;27.56;57.02
14882;BME280;7533;51.278;12.588;2023-09-08T01:26:44;100627.72;;;27.52;56.55
14882;BME280;7533;51.278;12.588;2023-09-08T01:31:48;100633.72;;;27.46;55.94
14882;BME280;7533;51.278;12.588;2023-09-08T01:36:52;100626.81;;;27.41;56.20
14882;BME280;7533;51.278;12.588;2023-09-08T01:41:57;100626.38;;;27.36;55.67
14882;BME280;7533;51.278;12.588;2023-09-08T01:47:00;100616.63;;;27.34;56.81
14882;BME280;7533;51.278;12.588;2023-09-08T01:52:03;100612.88;;;27.25;56.68
14882;BME280;7533;51.278;12.588;2023-09-08T01:57:08;100611.88;;;27.26;56.97
14882;BME280;7533;51.278;12.588;2023-09-08T02:02:11;100613.28;;;27.21;57.16
14882;BME280;7533;51.278;12.588;2023-09-08T02:07:14;100612.16;;;27.23;57.32
14882;BME280;7533;51.278;12.588;2023-09-08T02:12:18;100612.69;;;27.17;57.47
14882;BME280;7533;51.278;12.588;2023-09-08T02:17:22;100614.41;;;27.18;57.50
14882;BME280;7533;51.278;12.588;2023-09-08T02:22:25;100608.56;;;27.23;57.56
14882;BME280;7533;51.278;12.588;2023-09-08T02:27:30;100605.94;;;27.11;57.72
14882;BME280;7533;51.278;12.588;2023-09-08T02:32:33;100606.22;;;27.08;57.43
14882;BME280;7533;51.278;12.588;2023-09-08T02:37:36;100606.56;;;27.04;57.62
14882;BME280;7533;51.278;12.588;2023-09-08T02:42:41;100612.00;;;27.04;57.51
14882;BME280;7533;51.278;12.588;2023-09-08T02:47:45;100599.44;;;27.03;57.62
14882;BME280;7533;51.278;12.588;2023-09-08T02:52:49;100596.34;;;27.07;57.47
14882;BME280;7533;51.278;12.588;2023-09-08T02:57:53;100588.50;;;26.93;57.44
14882;BME280;7533;51.278;12.588;2023-09-08T03:02:57;100590.25;;;26.94;57.42
14882;BME280;7533;51.278;12.588;2023-09-08T03:08:00;100588.84;;;27.00;57.35
14882;BME280;7533;51.278;12.588;2023-09-08T03:13:05;100587.25;;;26.97;57.30
14882;BME280;7533;51.278;12.588;2023-09-08T03:18:08;100580.78;;;26.88;57.47
14882;BME280;7533;51.278;12.588;2023-09-08T03:23:11;100589.25;;;26.95;57.25
14882;BME280;7533;51.278;12.588;2023-09-08T03:28:16;100591.72;;;26.77;57.21
14882;BME280;7533;51.278;12.588;2023-09-08T03:33:19;100589.44;;;26.82;56.31
14882;BME280;7533;51.278;12.588;2023-09-08T03:38:23;100587.41;;;26.75;55.91
14882;BME280;7533;51.278;12.588;2023-09-08T03:43:29;100591.03;;;26.64;56.58
14882;BME280;7533;51.278;12.588;2023-09-08T03:48:32;100585.69;;;26.53;55.68
14882;BME280;7533;51.278;12.588;2023-09-08T03:53:35;100584.38;;;26.36;55.91
14882;BME280;7533;51.278;12.588;2023-09-08T03:58:40;100595.50;;;26.33;56.17
14882;BME280;7533;51.278;12.588;2023-09-08T04:03:43;100593.72;;;26.22;55.61
14882;BME280;7533;51.278;12.588;2023-09-08T04:08:47;100588.34;;;26.11;56.06
14882;BME280;7533;51.278;12.588;2023-09-08T04:13:51;100583.63;;;26.13;56.21
14882;BME280;7533;51.278;12.588;2023-09-08T04:18:55;100581.19;;;26.10;56.24
14882;BME280;7533;51.278;12.588;2023-09-08T04:23:58;100585.53;;;26.01;55.10
14882;BME280;7533;51.278;12.588;2023-09-08T04:29:03;100589.00;;;25.92;55.73
14882;BME280;7533;51.278;12.588;2023-09-08T04:34:05;100581.00;;;25.91;55.67
14882;BME280;7533;51.278;12.588;2023-09-08T04:39:09;100576.56;;;25.90;55.12
14882;BME280;7533;51.278;12.588;2023-09-08T04:44:14;100582.88;;;25.68;55.32
14882;BME280;7533;51.278;12.588;2023-09-08T04:49:18;100578.09;;;25.60;55.75
14882;BME280;7533;51.278;12.588;2023-09-08T04:54:21;100576.25;;;25.61;55.74
14882;BME280;7533;51.278;12.588;2023-09-08T04:59:25;100575.88;;;25.65;55.85
14882;BME280;7533;51.278;12.588;2023-09-08T05:04:28;100581.66;;;25.61;55.60
14882;BME280;7533;51.278;12.588;2023-09-08T05:09:31;100586.09;;;25.62;55.92
14882;BME280;7533;51.278;12.588;2023-09-08T05:14:37;100590.78;;;25.59;56.24
14882;BME280;7533;51.278;12.588;2023-09-08T05:19:40;100592.88;;;25.56;56.18
14882;BME280;7533;51.278;12.588;2023-09-08T05:24:44;100586.84;;;25.52;55.95
14882;BME280;7533;51.278;12.588;2023-09-08T05:29:50;100587.81;;;25.51;56.09
14882;BME280;7533;51.278;12.588;2023-09-08T05:34:54;100586.97;;;25.51;56.17
14882;BME280;7533;51.278;12.588;2023-09-08T05:39:57;100582.41;;;25.51;55.99
14882;BME280;7533;51.278;12.588;2023-09-08T05:45:02;100590.06;;;25.24;56.79
14882;BME280;7533;51.278;12.588;2023-09-08T05:50:06;100591.38;;;24.96;57.96
14882;BME280;7533;51.278;12.588;2023-09-08T05:55:09;100584.72;;;24.89;58.54
14882;BME280;7533;51.278;12.588;2023-09-08T06:00:15;100575.03;;;24.86;59.24
14882;BME280;7533;51.278;12.588;2023-09-08T06:05:22;100574.28;;;24.95;58.50
14882;BME280;7533;51.278;12.588;2023-09-08T06:10:25;100584.72;;;24.77;59.39
14882;BME280;7533;51.278;12.588;2023-09-08T06:15:30;100591.19;;;24.52;60.39
14882;BME280;7533;51.278;12.588;2023-09-08T06:20:34;100596.97;;;24.48;61.02
14882;BME280;7533;51.278;12.588;2023-09-08T06:25:37;100589.94;;;24.57;61.04
14882;BME280;7533;51.278;12.588;2023-09-08T06:30:42;100589.13;;;24.67;61.52
14882;BME280;7533;51.278;12.588;2023-09-08T06:35:45;100584.56;;;24.68;61.25
14882;BME280;7533;51.278;12.588;2023-09-08T06:40:49;100584.44;;;24.58;61.67
14882;BME280;7533;51.278;12.588;2023-09-08T06:45:56;100589.94;;;24.57;62.41
14882;BME280;7533;51.278;12.588;2023-09-08T06:50:59;100588.41;;;24.76;62.36
14882;BME280;7533;51.278;12.588;2023-09-08T06:56:03;100583.88;;;24.88;62.44
14882;BME280;7533;51.278;12.588;2023-09-08T07:01:09;100588.06;;;24.92;62.48
14882;BME280;7533;51.278;12.588;2023-09-08T07:06:13;100585.34;;;24.92;62.86
14882;BME280;7533;51.278;12.588;2023-09-08T07:11:16;100591.88;;;25.01;63.06
14882;BME280;7533;51.278;12.588;2023-09-08T07:16:22;100593.53;;;25.15;62.95
14882;BME280;7533;51.278;12.588;2023-09-08T07:21:25;100585.78;;;25.21;63.03
14882;BME280;7533;51.278;12.588;2023-09-08T07:26:29;100592.66;;;25.25;62.99
14882;BME280;7533;51.278;12.588;2023-09-08T07:31:34;100589.56;;;25.41;62.38
14882;BME280;7533;51.278;12.588;2023-09-08T07:36:37;100593.25;;;25.51;62.16
14882;BME280;7533;51.278;12.588;2023-09-08T07:41:40;100589.44;;;25.54;63.00
14882;BME280;7533;51.278;12.588;2023-09-08T07:46:46;100590.41;;;25.53;63.90
14882;BME280;7533;51.278;12.588;2023-09-08T07:51:50;100589.31;;;25.55;63.34
14882;BME280;7533;51.278;12.588;2023-09-08T07:56:53;100588.16;;;25.69;62.52
14882;BME280;7533;51.278;12.588;2023-09-08T08:01:58;100583.25;;;25.63;62.33
14882;BME280;7533;51.278;12.588;2023-09-08T08:07:01;100589.91;;;25.70;61.98
14882;BME280;7533;51.278;12.588;2023-09-08T08:12:04;100588.16;;;25.69;62.07
14882;BME280;7533;51.278;12.588;2023-09-08T08:17:09;100587.59;;;25.77;61.67
14882;BME280;7533;51.278;12.588;2023-09-08T08:22:12;100576.09;;;25.84;61.48
14882;BME280;7533;51.278;12.588;2023-09-08T08:27:16;100576.22;;;25.83;61.21
14882;BME280;7533;51.278;12.588;2023-09-08T08:32:20;100575.06;;;25.97;60.94
14882;BME280;7533;51.278;12.588;2023-09-08T08:37:24;100566.63;;;26.11;60.79
14882;BME280;7533;51.278;12.588;2023-09-08T08:42:31;100568.72;;;26.07;60.33
14882;BME280;7533;51.278;12.588;2023-09-08T08:47:36;100566.16;;;26.06;59.91
14882;BME280;7533;51.278;12.588;2023-09-08T08:52:39;100565.44;;;26.04;59.53
14882;BME280;7533;51.278;12.588;2023-09-08T08:57:42;100559.59;;;26.08;59.48
14882;BME280;7533;51.278;12.588;2023-09-08T09:02:50;100559.47;;;26.10;59.28
14882;BME280;7533;51.278;12.588;2023-09-08T09:08:13;100561.72;;;26.05;59.11
14882;BME280;7533;51.278;12.588;2023-09-08T09:13:16;100563.31;;;26.07;59.15
14882;BME280;7533;51.278;12.588;2023-09-08T09:18:21;100563.38;;;26.17;58.96
14882;BME280;7533;51.278;12.588;2023-09-08T09:23:28;100556.06;;;26.29;58.89
14882;BME280;7533;51.278;12.588;2023-09-08T09:28:31;100563.19;;;26.30;58.68
14882;BME280;7533;51.278;12.588;2023-09-08T09:33:36;100564.13;;;26.40;58.63
14882;BME280;7533;51.278;12.588;2023-09-08T09:38:40;100549.91;;;26.27;59.32
14882;BME280;7533;51.278;12.588;2023-09-08T09:43:43;100548.00;;;26.38;59.22
14882;BME280;7533;51.278;12.588;2023-09-08T09:48:50;100543.91;;;26.44;59.01
14882;BME280;7533;51.278;12.588;2023-09-08T09:53:55;100539.06;;;26.48;58.88
14882;BME280;7533;51.278;12.588;2023-09-08T09:59:01;100541.66;;;26.49;59.14
14882;BME280;7533;51.278;12.588;2023-09-08T10:04:07;100534.09;;;26.53;59.49
14882;BME280;7533;51.278;12.588;2023-09-08T10:09:10;100540.38;;;26.53;59.61
14882;BME280;7533;51.278;12.588;2023-09-08T10:14:17;100534.16;;;26.62;59.98
14882;BME280;7533;51.278;12.588;2023-09-08T10:19:22;100531.00;;;26.57;60.92
14882;BME280;7533;51.278;12.588;2023-09-08T10:24:27;100527.47;;;26.67;60.82
14882;BME280;7533;51.278;12.588;2023-09-08T10:29:51;100527.03;;;26.61;61.22
14882;BME280;7533;51.278;12.588;2023-09-08T10:34:58;100514.03;;;26.65;61.11
14882;BME280;7533;51.278;12.588;2023-09-08T10:40:22;100518.19;;;26.69;61.62
14882;BME280;7533;51.278;12.588;2023-09-08T10:45:25;100515.22;;;26.72;61.42
14882;BME280;7533;51.278;12.588;2023-09-08T10:50:34;100510.66;;;26.73;61.73
14882;BME280;7533;51.278;12.588;2023-09-08T10:55:43;100513.69;;;26.79;61.51
14882;BME280;7533;51.278;12.588;2023-09-08T11:01:01;100514.44;;;26.91;61.29
14882;BME280;7533;51.278;12.588;2023-09-08T11:06:08;100509.56;;;26.85;61.36
14882;BME280;7533;51.278;12.588;2023-09-08T11:11:12;100513.28;;;26.84;61.58
14882;BME280;7533;51.278;12.588;2023-09-08T11:16:15;100502.81;;;26.79;61.77
14882;BME280;7533;51.278;12.588;2023-09-08T11:21:24;100505.78;;;26.76;62.15
14882;BME280;7533;51.278;12.588;2023-09-08T11:26:28;100494.66;;;26.79;62.04
14882;BME280;7533;51.278;12.588;2023-09-08T11:31:31;100491.94;;;26.79;62.04
14882;BME280;7533;51.278;12.588;2023-09-08T11:36:37;100492.09;;;26.78;62.27
14882;BME280;7533;51.278;12.588;2023-09-08T11:41:41;100497.38;;;26.79;62.37
14882;BME280;7533;51.278;12.588;2023-09-08T11:46:44;100485.81;;;26.77;62.34
14882;BME280;7533;51.278;12.588;2023-09-08T11:51:49;100477.38;;;26.80;62.45
14882;BME280;7533;51.278;12.588;2023-09-08T11:56:52;100485.38;;;26.82;62.48
14882;BME280;7533;51.278;12.588;2023-09-08T12:01:56;100489.53;;;26.86;62.47
14882;BME280;7533;51.278;12.588;2023-09-08T12:07:01;100481.44;;;26.96;62.53
14882;BME280;7533;51.278;12.588;2023-09-08T12:12:12;100478.81;;;27.15;62.16
14882;BME280;7533;51.278;12.588;2023-09-08T12:17:15;100471.28;;;27.28;61.70
14882;BME280;7533;51.278;12.588;2023-09-08T12:22:21;100464.41;;;27.24;61.72
14882;BME280;7533;51.278;12.588;2023-09-08T12:27:24;100461.94;;;27.11;62.17
14882;BME280;7533;51.278;12.588;2023-09-08T12:32:29;100456.38;;;27.23;62.15
14882;BME280;7533;51.278;12.588;2023-09-08T12:37:34;100451.22;;;27.20;62.03
14882;BME280;7533;51.278;12.588;2023-09-08T12:42:37;100445.63;;;27.11;62.28
14882;BME280;7533;51.278;12.588;2023-09-08T12:47:47;100437.47;;;27.21;61.77
14882;BME280;7533;51.278;12.588;2023-09-08T12:52:52;100437.19;;;27.14;62.05
14882;BME280;7533;51.278;12.588;2023-09-08T12:57:55;100429.34;;;27.11;62.19
14882;BME280;7533;51.278;12.588;2023-09-08T13:02:58;100437.91;;;27.07;62.26
14882;BME280;7533;51.278;12.588;2023-09-08T13:08:05;100429.78;;;27.26;61.65
14882;BME280;7533;51.278;12.588;2023-09-08T13:13:08;100416.69;;;27.01;62.21
14882;BME280;7533;51.278;12.588;2023-09-08T13:18:11;100420.28;;;27.01;62.36
14882;BME280;7533;51.278;12.588;2023-09-08T13:23:16;100417.19;;;27.25;61.58
14882;BME280;7533;51.278;12.588;2023-09-08T13:28:19;100404.03;;;27.30;61.75
14882;BME280;7533;51.278;12.588;2023-09-08T13:33:21;100407.44;;;27.13;62.04
14882;BME280;7533;51.278;12.588;2023-09-08T13:38:29;100401.75;;;27.35;61.76
14882;BME280;7533;51.278;12.588;2023-09-08T13:43:32;100406.34;;;27.54;61.26
14882;BME280;7533;51.278;12.588;2023-09-08T13:48:35;100402.06;;;27.71;61.04
14882;BME280;7533;51.278;12.588;2023-09-08T13:53:41;100403.78;;;27.62;61.07
14882;BME280;7533;51.278;12.588;2023-09-08T13:58:48;100404.34;;;27.76;60.78
14882;BME280;7533;51.278;12.588;2023-09-08T14:03:57;100377.59;;;27.81;60.80
14882;BME280;7533;51.278;12.588;2023-09-08T14:09:11;100389.91;;;27.85;60.64
14882;BME280;7533;51.278;12.588;2023-09-08T14:14:18;100381.84;;;27.93;60.60
14882;BME280;7533;51.278;12.588;2023-09-08T14:19:21;100374.50;;;28.13;60.09
14882;BME280;7533;51.278;12.588;2023-09-08T14:24:25;100385.81;;;28.18;59.86
14882;BME280;7533;51.278;12.588;2023-09-08T14:29:28;100378.91;;;28.33;59.65
14882;BME280;7533;51.278;12.588;2023-09-08T14:34:31;100375.78;;;28.56;58.59
14882;BME280;7533;51.278;12.588;2023-09-08T14:39:35;100369.44;;;28.65;58.47
14882;BME280;7533;51.278;12.588;2023-09-08T14:44:38;100365.34;;;28.79;58.29
14882;BME280;7533;51.278;12.588;2023-09-08T14:49:41;100353.69;;;28.96;58.35
14882;BME280;7533;51.278;12.588;2023-09-08T14:54:53;100357.72;;;29.10;57.34
14882;BME280;7533;51.278;12.588;2023-09-08T14:59:56;100352.84;;;29.13;57.43
14882;BME280;7533;51.278;12.588;2023-09-08T15:04:59;100357.03;;;29.25;56.83
14882;BME280;7533;51.278;12.588;2023-09-08T15:10:04;100351.19;;;29.38;56.78
14882;BME280;7533;51.278;12.588;2023-09-08T15:15:08;100345.50;;;29.49;56.35
14882;BME280;7533;51.278;12.588;2023-09-08T15:20:11;100351.06;;;29.58;55.88
14882;BME280;7533;51.278;12.588;2023-09-08T15:25:16;100339.34;;;29.65;55.78
14882;BME280;7533;51.278;12.588;2023-09-08T15:30:19;100343.16;;;29.72;55.38
14882;BME280;7533;51.278;12.588;2023-09-08T15:35:22;100343.53;;;29.77;55.27
14882;BME280;7533;51.278;12.588;2023-09-08T15:40:26;100339.31;;;29.83;55.33
14882;BME280;7533;51.278;12.588;2023-09-08T15:45:29;100345.13;;;29.88;54.86
14882;BME280;7533;51.278;12.588;2023-09-08T15:50:32;100330.69;;;29.96;55.06
14882;BME280;7533;51.278;12.588;2023-09-08T15:55:36;100337.91;;;30.05;54.44
14882;BME280;7533;51.278;12.588;2023-09-08T16:00:40;100331.97;;;30.10;54.41
14882;BME280;7533;51.278;12.588;2023-09-08T16:05:43;100326.75;;;30.16;54.33
14882;BME280;7533;51.278;12.588;2023-09-08T16:10:47;100328.72;;;30.32;54.21
14882;BME280;7533;51.278;12.588;2023-09-08T16:15:50;100333.56;;;30.89;52.86
14882;BME280;7533;51.278;12.588;2023-09-08T16:20:53;100326.78;;;31.25;52.47
14882;BME280;7533;51.278;12.588;2023-09-08T16:25:57;100323.38;;;31.48;51.81
14882;BME280;7533;51.278;12.588;2023-09-08T16:31:03;100312.09;;;31.59;51.63
14882;BME280;7533;51.278;12.588;2023-09-08T16:36:07;100310.22;;;31.68;51.59
14882;BME280;7533;51.278;12.588;2023-09-08T16:41:12;100304.38;;;31.71;52.10
14882;BME280;7533;51.278;12.588;2023-09-08T16:46:15;100302.53;;;31.63;51.90
14882;BME280;7533;51.278;12.588;2023-09-08T16:51:18;100304.44;;;31.54;51.83
14882;BME280;7533;51.278;12.588;2023-09-08T16:56:22;100312.81;;;31.45;52.49
14882;BME280;7533;51.278;12.588;2023-09-08T17:01:25;100312.63;;;31.38;52.79
14882;BME280;7533;51.278;12.588;2023-09-08T17:06:28;100319.31;;;31.27;53.23
14882;BME280;7533;51.278;12.588;2023-09-08T17:11:33;100315.50;;;31.20;53.09
14882;BME280;7533;51.278;12.588;2023-09-08T17:16:38;100317.22;;;31.21;53.14
14882;BME280;7533;51.278;12.588;2023-09-08T17:21:41;100311.22;;;31.10;53.30
14882;BME280;7533;51.278;12.588;2023-09-08T17:26:46;100310.19;;;31.11;53.35
14882;BME280;7533;51.278;12.588;2023-09-08T17:31:49;100317.50;;;31.02;53.56
14882;BME280;7533;51.278;12.588;2023-09-08T17:36:53;100323.84;;;31.02;53.31
14882;BME280;7533;51.278;12.588;2023-09-08T17:41:58;100323.88;;;31.11;53.34
14882;BME280;7533;51.278;12.588;2023-09-08T17:47:02;100328.63;;;31.08;53.49
14882;BME280;7533;51.278;12.588;2023-09-08T17:52:07;100336.81;;;31.00;53.65
14882;BME280;7533;51.278;12.588;2023-09-08T17:57:11;100341.41;;;30.92;53.95
14882;BME280;7533;51.278;12.588;2023-09-08T18:02:14;100343.81;;;30.95;53.62
14882;BME280;7533;51.278;12.588;2023-09-08T18:07:17;100349.09;;;30.88;53.81
14882;BME280;7533;51.278;12.588;2023-09-08T18:12:22;100344.44;;;30.80;53.99
14882;BME280;7533;51.278;12.588;2023-09-08T18:17:25;100352.69;;;30.89;53.90
14882;BME280;7533;51.278;12.588;2023-09-08T18:22:28;100351.31;;;30.50;54.35
14882;BME280;7533;51.278;12.588;2023-09-08T18:27:33;100355.28;;;30.56;52.85
14882;BME280;7533;51.278;12.588;2023-09-08T18:32:36;100355.16;;;30.66;51.93
14882;BME280;7533;51.278;12.588;2023-09-08T18:37:39;100355.31;;;30.64;51.04
14882;BME280;7533;51.278;12.588;2023-09-08T18:42:44;100360.94;;;30.63;51.65
14882;BME280;7533;51.278;12.588;2023-09-08T18:47:47;100360.91;;;30.54;52.41
14882;BME280;7533;51.278;12.588;2023-09-08T18:52:50;100358.63;;;30.42;52.26
14882;BME280;7533;51.278;12.588;2023-09-08T18:57:57;100363.50;;;30.30;51.91
14882;BME280;7533;51.278;12.588;2023-09-08T19:03:00;100359.25;;;30.36;52.00
14882;BME280;7533;51.278;12.588;2023-09-08T19:08:03;100355.53;;;30.37;51.22
14882;BME280;7533;51.278;12.588;2023-09-08T19:13:07;100362.25;;;30.50;50.95
14882;BME280;7533;51.278;12.588;2023-09-08T19:18:10;100368.94;;;30.56;51.00
14882;BME280;7533;51.278;12.588;2023-09-08T19:23:13;100364.84;;;30.60;51.10
14882;BME280;7533;51.278;12.588;2023-09-08T19:28:18;100360.72;;;30.56;50.91
14882;BME280;7533;51.278;12.588;2023-09-08T19:33:20;100360.53;;;30.49;51.50
14882;BME280;7533;51.278;12.588;2023-09-08T19:38:23;100356.97;;;30.57;50.89
14882;BME280;7533;51.278;12.588;2023-09-08T19:43:28;100360.72;;;30.48;51.16
14882;BME280;7533;51.278;12.588;2023-09-08T19:48:32;100362.63;;;30.55;51.05
14882;BME280;7533;51.278;12.588;2023-09-08T19:53:36;100362.94;;;30.52;50.55
14882;BME280;7533;51.278;12.588;2023-09-08T19:58:40;100358.63;;;30.42;50.73
14882;BME280;7533;51.278;12.588;2023-09-08T20:03:44;100354.69;;;30.36;50.98
14882;BME280;7533;51.278;12.588;2023-09-08T20:08:47;100357.28;;;30.46;50.86
14882;BME280;7533;51.278;12.588;2023-09-08T20:13:51;100349.91;;;30.38;51.05
14882;BME280;7533;51.278;12.588;2023-09-08T20:18:55;100356.69;;;30.34;51.25
14882;BME280;7533;51.278;12.588;2023-09-08T20:23:58;100362.16;;;30.34;50.65
14882;BME280;7533;51.278;12.588;2023-09-08T20:29:04;100358.94;;;30.31;50.46
14882;BME280;7533;51.278;12.588;2023-09-08T20:34:07;100355.84;;;30.34;50.76
14882;BME280;7533;51.278;12.588;2023-09-08T20:39:15;100349.53;;;30.33;50.77
14882;BME280;7533;51.278;12.588;2023-09-08T20:44:20;100355.31;;;30.30;50.92
14882;BME280;7533;51.278;12.588;2023-09-08T20:49:23;100352.75;;;30.28;50.96
14882;BME280;7533;51.278;12.588;2023-09-08T20:54:26;100352.94;;;30.35;50.92
14882;BME280;7533;51.278;12.588;2023-09-08T20:59:31;100350.72;;;30.31;50.84
14882;BME280;7533;51.278;12.588;2023-09-08T21:04:34;100349.84;;;30.30;50.73
14882;BME280;7533;51.278;12.588;2023-09-08T21:09:37;100359.06;;;30.29;51.19
14882;BME280;7533;51.278;12.588;2023-09-08T21:14:42;100358.75;;;30.32;50.74
14882;BME280;7533;51.278;12.588;2023-09-08T21:19:45;100357.31;;;30.20;51.35
14882;BME280;7533;51.278;12.588;2023-09-08T21:24:48;100347.94;;;30.22;51.36
14882;BME280;7533;51.278;12.588;2023-09-08T21:29:53;100352.84;;;30.19;51.24
14882;BME280;7533;51.278;12.588;2023-09-08T21:34:56;100350.19;;;30.27;50.95
14882;BME280;7533;51.278;12.588;2023-09-08T21:39:59;100350.13;;;30.19;51.17
14882;BME280;7533;51.278;12.588;2023-09-08T21:45:05;100354.97;;;30.25;50.94
14882;BME280;7533;51.278;12.588;2023-09-08T21:50:09;100358.88;;;30.22;51.00
14882;BME280;7533;51.278;12.588;2023-09-08T21:55:11;100357.97;;;30.14;51.33
14882;BME280;7533;51.278;12.588;2023-09-08T22:00:16;100355.94;;;30.16;51.08
14882;BME280;7533;51.278;12.588;2023-09-08T22:05:22;100357.56;;;30.09;51.08
14882;BME280;7533;51.278;12.588;2023-09-08T22:10:25;100354.13;;;30.07;51.28
14882;BME280;7533;51.278;12.588;2023-09-08T22:15:29;100352.09;;;30.09;51.08
14882;BME280;7533;51.278;12.588;2023-09-08T22:20:32;100349.69;;;30.06;50.66
14882;BME280;7533;51.278;12.588;2023-09-08T22:25:35;100351.81;;;30.12;50.75
14882;BME280;7533;51.278;12.588;2023-09-08T22:30:39;100339.41;;;29.99;51.09
14882;BME280;7533;51.278;12.588;2023-09-08T22:35:42;100336.31;;;29.94;51.02
14882;BME280;7533;51.278;12.588;2023-09-08T22:40:45;100336.66;;;29.73;51.28
14882;BME280;7533;51.278;12.588;2023-09-08T22:45:49;100334.09;;;29.72;51.25
14882;BME280;7533;51.278;12.588;2023-09-08T22:50:52;100334.44;;;29.69;51.37
14882;BME280;7533;51.278;12.588;2023-09-08T22:55:56;100332.31;;;29.45;52.12
14882;BME280;7533;51.278;12.588;2023-09-08T23:01:00;100330.44;;;29.45;51.67
14882;BME280;7533;51.278;12.588;2023-09-08T23:06:03;100335.06;;;29.27;51.81
14882;BME280;7533;51.278;12.588;2023-09-08T23:11:06;100336.38;;;29.23;51.90
14882;BME280;7533;51.278;12.588;2023-09-08T23:16:12;100332.50;;;29.08;52.01
14882;BME280;7533;51.278;12.588;2023-09-08T23:21:15;100331.09;;;29.21;51.58
14882;BME280;7533;51.278;12.588;2023-09-08T23:26:17;100328.53;;;29.20;52.07
14882;BME280;7533;51.278;12.588;2023-09-08T23:31:22;100329.69;;;29.17;51.85
14882;BME280;7533;51.278;12.588;2023-09-08T23:36:24;100320.69;;;28.89;52.10
14882;BME280;7533;51.278;12.588;2023-09-08T23:41:28;100323.00;;;28.84;52.40
14882;BME280;7533;51.278;12.588;2023-09-08T23:46:32;100312.22;;;28.92;52.14
14882;BME280;7533;51.278;12.588;2023-09-08T23:51:35;100307.56;;;28.85;52.62
14882;BME280;7533;51.278;12.588;2023-09-08T23:56:38;100318.06;;;28.80;52.82
